createdAt,value
2022-11-15T00:00:59.023Z,100649.19
2022-11-15T00:03:28.065Z,100650.38
2022-11-15T00:05:56.896Z,100648.44
2022-11-15T00:08:24.386Z,100644.47
2022-11-15T00:10:58.076Z,100641.53
2022-11-15T00:13:25.651Z,100643.69
2022-11-15T00:15:53.449Z,100654.31
2022-11-15T00:18:21.168Z,100649.25
2022-11-15T00:20:48.667Z,100655.78
2022-11-15T00:23:17.574Z,100656.38
2022-11-15T00:25:45.061Z,100652.00
2022-11-15T00:28:12.737Z,100652.28
2022-11-15T00:30:40.199Z,100644.63
2022-11-15T00:33:08.630Z,100643.75
2022-11-15T00:35:36.483Z,100640.53
2022-11-15T00:38:04.756Z,100636.75
2022-11-15T00:40:33.563Z,100638.91
2022-11-15T00:43:01.283Z,100642.78
2022-11-15T00:45:28.767Z,100646.09
2022-11-15T00:47:56.279Z,100638.59
2022-11-15T00:50:23.764Z,100640.09
2022-11-15T00:52:51.288Z,100642.16
2022-11-15T00:55:19.653Z,100640.19
2022-11-15T00:57:48.661Z,100650.53
2022-11-15T01:00:16.598Z,100651.47
2022-11-15T01:02:44.081Z,100648.84
2022-11-15T01:05:11.524Z,100646.88
2022-11-15T01:07:38.989Z,100641.97
2022-11-15T01:10:07.659Z,100644.56
2022-11-15T01:12:35.572Z,100643.63
2022-11-15T01:15:05.018Z,100633.78
2022-11-15T01:17:33.092Z,100636.69
2022-11-15T01:20:00.559Z,100633.56
2022-11-15T01:22:28.068Z,100624.78
2022-11-15T01:24:55.520Z,100626.31
2022-11-15T01:27:23.200Z,100620.78
2022-11-15T01:29:50.690Z,100611.19
2022-11-15T01:32:19.697Z,100610.53
2022-11-15T01:34:47.215Z,100609.28
2022-11-15T01:37:14.666Z,100611.19
2022-11-15T01:39:42.428Z,100609.41
2022-11-15T01:42:14.191Z,100617.16
2022-11-15T01:44:45.211Z,100605.78
2022-11-15T01:47:15.275Z,100605.91
2022-11-15T01:49:48.706Z,100611.97
2022-11-15T01:52:19.646Z,100604.84
2022-11-15T01:54:47.594Z,100602.59
2022-11-15T01:57:15.397Z,100614.16
2022-11-15T01:59:45.175Z,100604.53
2022-11-15T02:02:12.891Z,100610.16
2022-11-15T02:04:44.708Z,100603.66
2022-11-15T02:07:14.784Z,100605.34
2022-11-15T02:09:42.284Z,100603.84
2022-11-15T02:12:10.996Z,100599.72
2022-11-15T02:14:40.233Z,100600.34
2022-11-15T02:17:16.303Z,100598.44
2022-11-15T02:20:04.976Z,100596.56
2022-11-15T02:22:39.444Z,100590.66
2022-11-15T02:25:20.716Z,100579.19
2022-11-15T02:28:20.001Z,100578.69
2022-11-15T02:30:50.046Z,100583.63
2022-11-15T02:33:28.791Z,100582.59
2022-11-15T02:36:00.720Z,100581.81
2022-11-15T02:38:33.228Z,100583.00
2022-11-15T02:41:03.366Z,100584.38
2022-11-15T02:43:52.950Z,100573.03
2022-11-15T02:46:44.364Z,100576.88
2022-11-15T02:49:13.531Z,100571.19
2022-11-15T02:51:41.891Z,100564.00
2022-11-15T02:54:09.427Z,100567.53
2022-11-15T02:56:39.805Z,100560.41
2022-11-15T02:59:19.286Z,100561.25
2022-11-15T03:01:58.358Z,100568.13
2022-11-15T03:04:31.361Z,100556.47
2022-11-15T03:07:02.950Z,100556.69
2022-11-15T03:09:35.634Z,100556.16
2022-11-15T03:12:07.578Z,100549.38
2022-11-15T03:14:37.398Z,100550.09
2022-11-15T03:17:13.713Z,100549.38
2022-11-15T03:19:46.713Z,100555.22
2022-11-15T03:22:18.970Z,100547.34
2022-11-15T03:24:48.334Z,100547.91
2022-11-15T03:27:18.336Z,100544.00
2022-11-15T03:29:48.749Z,100542.97
2022-11-15T03:32:21.236Z,100542.34
2022-11-15T03:34:52.389Z,100542.66
2022-11-15T03:37:22.810Z,100542.66
2022-11-15T03:39:50.437Z,100542.78
2022-11-15T03:42:24.209Z,100539.47
2022-11-15T03:44:56.201Z,100544.69
2022-11-15T03:47:28.725Z,100541.75
2022-11-15T03:49:59.661Z,100539.31
2022-11-15T03:52:27.455Z,100551.78
2022-11-15T03:54:57.507Z,100547.97
2022-11-15T03:57:25.343Z,100543.06
2022-11-15T03:59:53.113Z,100554.94
2022-11-15T04:02:20.763Z,100552.06
2022-11-15T04:04:49.926Z,100545.75
2022-11-15T04:07:17.657Z,100538.78
2022-11-15T04:10:03.011Z,100551.16
2022-11-15T04:12:33.590Z,100543.81
2022-11-15T04:15:11.501Z,100542.75
2022-11-15T04:17:41.245Z,100540.09
2022-11-15T04:20:31.446Z,100536.38
2022-11-15T04:23:17.597Z,100540.75
2022-11-15T04:25:45.995Z,100539.34
2022-11-15T04:28:13.977Z,100542.56
2022-11-15T04:30:41.709Z,100542.72
2022-11-15T04:33:09.185Z,100544.69
2022-11-15T04:35:38.096Z,100547.50
2022-11-15T04:38:06.922Z,100548.19
2022-11-15T04:40:34.463Z,100552.06
2022-11-15T04:43:03.928Z,100552.59
2022-11-15T04:45:31.764Z,100545.31
2022-11-15T04:47:59.314Z,100547.00
2022-11-15T04:50:26.780Z,100553.31
2022-11-15T04:52:56.096Z,100551.44
2022-11-15T04:55:23.604Z,100539.22
2022-11-15T04:57:59.439Z,100551.56
2022-11-15T05:00:27.821Z,100547.00
2022-11-15T05:03:13.079Z,100549.47
2022-11-15T05:05:40.670Z,100554.91
2022-11-15T05:08:09.577Z,100555.25
2022-11-15T05:10:37.141Z,100548.88
2022-11-15T05:13:04.622Z,100557.06
2022-11-15T05:15:32.128Z,100548.19
2022-11-15T05:18:01.187Z,100547.22
2022-11-15T05:20:28.768Z,100554.00
2022-11-15T05:22:56.538Z,100542.34
2022-11-15T05:25:25.868Z,100544.13
2022-11-15T05:27:53.516Z,100537.72
2022-11-15T05:30:21.022Z,100539.34
2022-11-15T05:32:49.631Z,100539.81
2022-11-15T05:35:22.344Z,100540.63
2022-11-15T05:37:50.299Z,100540.34
2022-11-15T05:40:18.261Z,100539.41
2022-11-15T05:42:48.769Z,100534.19
2022-11-15T05:45:16.473Z,100530.47
2022-11-15T05:47:44.110Z,100526.16
2022-11-15T05:50:13.546Z,100535.06
2022-11-15T05:52:41.197Z,100534.41
2022-11-15T05:55:10.002Z,100537.00
2022-11-15T05:57:37.658Z,100536.13
2022-11-15T06:00:08.975Z,100544.22
2022-11-15T06:02:37.194Z,100540.44
2022-11-15T06:05:05.389Z,100543.56
2022-11-15T06:07:33.069Z,100545.78
2022-11-15T06:10:00.616Z,100548.69
2022-11-15T06:12:28.085Z,100553.31
2022-11-15T06:14:55.591Z,100561.69
2022-11-15T06:17:24.452Z,100557.31
2022-11-15T06:19:51.911Z,100562.72
2022-11-15T06:22:19.587Z,100565.53
2022-11-15T06:24:47.601Z,100560.13
2022-11-15T06:27:15.095Z,100562.13
2022-11-15T06:29:42.706Z,100567.16
2022-11-15T06:32:10.200Z,100566.56
2022-11-15T06:34:39.019Z,100576.28
2022-11-15T06:37:06.541Z,100567.69
2022-11-15T06:39:33.989Z,100573.09
2022-11-15T06:42:01.531Z,100577.66
2022-11-15T06:44:29.072Z,100575.31
2022-11-15T06:46:56.651Z,100574.50
2022-11-15T06:49:24.129Z,100578.84
2022-11-15T06:51:52.932Z,100574.00
2022-11-15T06:54:21.761Z,100573.50
2022-11-15T06:56:49.349Z,100583.63
2022-11-15T06:59:16.895Z,100574.22
2022-11-15T07:01:44.524Z,100580.75
2022-11-15T07:04:12.346Z,100577.09
2022-11-15T07:06:39.794Z,100573.03
2022-11-15T07:09:08.613Z,100580.38
2022-11-15T07:11:36.437Z,100581.56
2022-11-15T07:14:05.535Z,100578.31
2022-11-15T07:16:33.105Z,100583.69
2022-11-15T07:19:00.814Z,100588.69
2022-11-15T07:21:28.555Z,100588.47
2022-11-15T07:23:56.295Z,100583.94
2022-11-15T07:26:25.333Z,100579.38
2022-11-15T07:28:53.038Z,100582.03
2022-11-15T07:31:20.778Z,100586.94
2022-11-15T07:33:48.323Z,100587.22
2022-11-15T07:36:15.893Z,100583.06
2022-11-15T07:38:43.441Z,100583.69
2022-11-15T07:41:11.248Z,100600.69
2022-11-15T07:43:40.295Z,100605.00
2022-11-15T07:46:10.173Z,100608.72
2022-11-15T07:48:45.664Z,100598.03
2022-11-15T07:51:14.832Z,100600.47
2022-11-15T07:53:42.642Z,100601.41
2022-11-15T07:56:10.772Z,100599.69
2022-11-15T07:58:39.695Z,100595.75
2022-11-15T08:01:08.432Z,100602.88
2022-11-15T08:03:36.381Z,100609.19
2022-11-15T08:06:04.216Z,100606.84
2022-11-15T08:08:32.008Z,100597.91
2022-11-15T08:10:59.828Z,100603.06
2022-11-15T08:13:27.363Z,100601.00
2022-11-15T08:16:03.440Z,100599.72
2022-11-15T08:18:31.157Z,100595.28
2022-11-15T08:21:01.135Z,100596.91
2022-11-15T08:23:29.242Z,100599.50
2022-11-15T08:26:01.605Z,100590.78
2022-11-15T08:28:29.174Z,100591.25
2022-11-15T08:30:56.696Z,100595.78
2022-11-15T08:33:25.823Z,100591.00
2022-11-15T08:35:53.427Z,100592.41
2022-11-15T08:38:21.059Z,100583.44
2022-11-15T08:40:48.717Z,100577.97
2022-11-15T08:43:16.267Z,100577.38
2022-11-15T08:45:43.825Z,100580.31
2022-11-15T08:48:11.405Z,100583.69
2022-11-15T08:50:40.606Z,100581.00
2022-11-15T08:53:09.396Z,100581.72
2022-11-15T08:55:38.625Z,100580.78
2022-11-15T08:58:07.188Z,100588.81
2022-11-15T09:00:35.184Z,100590.66
2022-11-15T09:03:05.996Z,100583.91
2022-11-15T09:05:33.552Z,100575.31
2022-11-15T09:08:13.928Z,100584.13
2022-11-15T09:10:50.643Z,100578.78
2022-11-15T09:13:18.326Z,100582.19
2022-11-15T09:15:45.866Z,100576.59
2022-11-15T09:18:13.456Z,100585.66
2022-11-15T09:20:41.876Z,100592.19
2022-11-15T09:23:11.073Z,100597.19
2022-11-15T09:25:38.610Z,100599.53
2022-11-15T09:28:08.365Z,100592.91
2022-11-15T09:30:35.883Z,100589.28
2022-11-15T09:33:08.720Z,100590.22
2022-11-15T09:35:36.612Z,100594.31
2022-11-15T09:38:04.257Z,100594.41
2022-11-15T09:40:34.312Z,100593.69
2022-11-15T09:43:09.911Z,100591.25
2022-11-15T09:45:43.548Z,100582.19
2022-11-15T09:48:22.357Z,100585.75
2022-11-15T09:50:51.585Z,100578.88
2022-11-15T09:53:50.855Z,100581.69
2022-11-15T09:56:17.675Z,100585.31
2022-11-15T09:58:51.664Z,100588.13
2022-11-15T10:01:22.013Z,100587.06
2022-11-15T10:03:49.532Z,100582.59
2022-11-15T10:06:23.986Z,100576.44
2022-11-15T10:09:00.526Z,100567.66
2022-11-15T10:11:39.455Z,100572.56
2022-11-15T10:14:12.471Z,100558.19
2022-11-15T10:17:01.668Z,100568.34
2022-11-15T10:19:35.527Z,100561.81
2022-11-15T10:22:14.392Z,100561.56
2022-11-15T10:24:43.951Z,100554.91
2022-11-15T10:27:14.452Z,100553.63
2022-11-15T10:29:45.347Z,100559.53
2022-11-15T10:32:13.081Z,100546.56
2022-11-15T10:34:40.643Z,100550.16
2022-11-15T10:37:08.320Z,100548.03
2022-11-15T10:39:36.093Z,100552.94
2022-11-15T10:42:19.285Z,100544.16
2022-11-15T10:44:47.120Z,100534.78
2022-11-15T10:47:39.474Z,100531.63
2022-11-15T10:50:09.374Z,100515.63
2022-11-15T10:52:38.647Z,100519.69
2022-11-15T10:55:22.376Z,100516.03
2022-11-15T10:57:53.595Z,100519.13
2022-11-15T11:00:34.064Z,100517.41
2022-11-15T11:03:02.760Z,100515.97
2022-11-15T11:05:39.716Z,100515.47
2022-11-15T11:08:25.723Z,100510.50
2022-11-15T11:11:01.916Z,100513.59
2022-11-15T11:13:33.538Z,100512.53
2022-11-15T11:16:11.489Z,100505.91
2022-11-15T11:18:41.105Z,100506.00
2022-11-15T11:21:13.452Z,100500.47
2022-11-15T11:23:48.009Z,100495.09
2022-11-15T11:26:27.049Z,100490.91
2022-11-15T11:29:03.386Z,100487.22
2022-11-15T11:31:34.412Z,100494.75
2022-11-15T11:34:06.639Z,100481.53
2022-11-15T11:36:41.124Z,100482.38
2022-11-15T11:39:21.619Z,100484.00
2022-11-15T11:41:58.016Z,100487.22
2022-11-15T11:44:33.064Z,100487.91
2022-11-15T11:47:02.533Z,100475.50
2022-11-15T11:49:38.638Z,100478.28
2022-11-15T11:52:12.228Z,100477.84
2022-11-15T11:54:44.814Z,100474.59
2022-11-15T11:57:18.634Z,100481.97
2022-11-15T11:59:51.195Z,100467.47
2022-11-15T12:02:22.816Z,100467.22
2022-11-15T12:04:53.070Z,100464.84
2022-11-15T12:07:24.091Z,100467.22
2022-11-15T12:09:55.816Z,100470.97
2022-11-15T12:12:29.152Z,100468.28
2022-11-15T12:15:01.034Z,100468.78
2022-11-15T12:17:32.791Z,100469.47
2022-11-15T12:20:01.089Z,100459.78
2022-11-15T12:22:37.830Z,100460.28
2022-11-15T12:25:09.691Z,100457.41
2022-11-15T12:27:40.443Z,100456.63
2022-11-15T12:30:15.408Z,100456.63
2022-11-15T12:32:53.633Z,100461.53
2022-11-15T12:35:29.519Z,100459.38
2022-11-15T12:37:57.724Z,100459.97
2022-11-15T12:40:44.779Z,100458.34
2022-11-15T12:43:42.071Z,100448.69
2022-11-15T12:46:15.998Z,100446.81
2022-11-15T12:48:55.212Z,100449.19
2022-11-15T12:51:24.832Z,100446.81
2022-11-15T12:53:52.324Z,100446.38
2022-11-15T12:56:22.744Z,100447.41
2022-11-15T12:58:52.436Z,100428.56
2022-11-15T13:01:56.936Z,100427.25
2022-11-15T13:04:27.395Z,100424.91
2022-11-15T13:06:56.693Z,100421.88
2022-11-15T13:10:05.753Z,100415.44
2022-11-15T13:12:58.576Z,100408.13
2022-11-15T13:15:48.297Z,100397.94
2022-11-15T13:18:33.939Z,100394.41
2022-11-15T13:21:03.137Z,100393.34
2022-11-15T13:23:30.959Z,100384.47
2022-11-15T13:26:12.963Z,100384.72
2022-11-15T13:28:45.298Z,100389.03
2022-11-15T13:31:22.904Z,100383.16
2022-11-15T13:33:52.229Z,100392.56
2022-11-15T13:36:22.451Z,100397.66
2022-11-15T13:38:57.637Z,100389.59
2022-11-15T13:41:26.464Z,100384.00
2022-11-15T13:43:54.993Z,100382.34
2022-11-15T13:46:24.055Z,100383.22
2022-11-15T13:48:58.163Z,100385.03
2022-11-15T13:51:36.348Z,100387.47
2022-11-15T13:54:09.991Z,100372.69
2022-11-15T13:56:37.830Z,100371.41
2022-11-15T13:59:11.596Z,100368.44
2022-11-15T14:01:39.291Z,100365.16
2022-11-15T14:04:09.252Z,100366.00
2022-11-15T14:06:46.589Z,100361.44
2022-11-15T14:09:33.696Z,100360.66
2022-11-15T14:12:02.235Z,100375.72
2022-11-15T14:14:31.025Z,100371.97
2022-11-15T14:17:00.107Z,100371.97
2022-11-15T14:19:42.146Z,100374.09
2022-11-15T14:22:11.785Z,100368.47
2022-11-15T14:24:39.917Z,100360.69
2022-11-15T14:27:25.786Z,100359.06
2022-11-15T14:29:53.638Z,100340.44
2022-11-15T14:32:22.778Z,100346.69
2022-11-15T14:34:56.201Z,100348.56
2022-11-15T14:37:26.098Z,100343.72
2022-11-15T14:39:54.454Z,100354.19
2022-11-15T14:42:22.921Z,100349.06
2022-11-15T14:44:50.386Z,100352.88
2022-11-15T14:47:18.092Z,100343.47
2022-11-15T14:49:46.064Z,100344.50
2022-11-15T14:52:32.586Z,100339.81
2022-11-15T14:55:02.216Z,100333.41
2022-11-15T14:57:29.802Z,100339.91
2022-11-15T14:59:57.728Z,100330.97
2022-11-15T15:02:27.637Z,100332.59
2022-11-15T15:04:55.424Z,100329.84
2022-11-15T15:07:24.425Z,100323.88
2022-11-15T15:09:59.123Z,100328.47
2022-11-15T15:12:39.589Z,100323.31
2022-11-15T15:15:08.556Z,100331.94
2022-11-15T15:17:36.048Z,100334.88
2022-11-15T15:20:03.688Z,100335.69
2022-11-15T15:22:31.453Z,100337.59
2022-11-15T15:25:00.296Z,100333.00
2022-11-15T15:27:27.804Z,100335.69
2022-11-15T15:29:55.297Z,100332.69
2022-11-15T15:32:22.792Z,100338.06
2022-11-15T15:34:50.265Z,100339.41
2022-11-15T15:37:25.524Z,100346.72
2022-11-15T15:39:53.688Z,100337.53
2022-11-15T15:42:23.387Z,100336.72
2022-11-15T15:44:51.740Z,100332.69
2022-11-15T15:47:21.349Z,100329.47
2022-11-15T15:49:49.193Z,100325.41
2022-11-15T15:52:16.923Z,100325.13
2022-11-15T15:54:45.562Z,100321.09
2022-11-15T15:57:14.598Z,100327.28
2022-11-15T15:59:43.573Z,100337.19
2022-11-15T16:02:11.850Z,100333.94
2022-11-15T16:04:39.308Z,100326.94
2022-11-15T16:07:06.888Z,100329.13
2022-11-15T16:09:52.224Z,100314.84
2022-11-15T16:12:19.726Z,100316.22
2022-11-15T16:14:48.539Z,100326.44
2022-11-15T16:17:18.380Z,100328.53
2022-11-15T16:19:45.903Z,100324.25
2022-11-15T16:22:13.369Z,100316.47
2022-11-15T16:24:40.873Z,100307.75
2022-11-15T16:27:14.533Z,100304.75
2022-11-15T16:29:42.035Z,100305.84
2022-11-15T16:32:10.948Z,100309.88
2022-11-15T16:34:41.886Z,100304.19
2022-11-15T16:37:22.403Z,100310.44
2022-11-15T16:39:50.061Z,100302.19
2022-11-15T16:42:17.591Z,100306.00
2022-11-15T16:44:45.741Z,100290.88
2022-11-15T16:47:19.514Z,100291.47
2022-11-15T16:49:47.509Z,100297.09
2022-11-15T16:52:20.138Z,100285.50
2022-11-15T16:54:48.764Z,100285.72
2022-11-15T16:57:16.540Z,100286.88
2022-11-15T16:59:44.046Z,100288.72
2022-11-15T17:02:12.821Z,100284.34
2022-11-15T17:04:41.876Z,100278.03
2022-11-15T17:07:09.435Z,100281.47
2022-11-15T17:09:37.612Z,100275.81
2022-11-15T17:12:05.406Z,100267.75
2022-11-15T17:14:32.912Z,100268.31
2022-11-15T17:17:00.656Z,100259.09
2022-11-15T17:19:28.376Z,100256.72
2022-11-15T17:21:57.182Z,100263.41
2022-11-15T17:24:24.650Z,100245.34
2022-11-15T17:26:52.084Z,100248.59
2022-11-15T17:29:19.576Z,100251.03
2022-11-15T17:31:47.088Z,100248.63
2022-11-15T17:34:14.556Z,100257.50
2022-11-15T17:36:42.016Z,100254.78
2022-11-15T17:39:10.863Z,100255.38
2022-11-15T17:41:38.332Z,100249.34
2022-11-15T17:44:06.037Z,100262.03
2022-11-15T17:46:36.238Z,100260.16
2022-11-15T17:49:04.129Z,100262.53
2022-11-15T17:51:31.587Z,100265.53
2022-11-15T17:53:59.150Z,100258.81
2022-11-15T17:56:30.508Z,100264.41
2022-11-15T17:58:59.548Z,100268.22
2022-11-15T18:01:28.820Z,100263.94
2022-11-15T18:03:57.453Z,100258.03
2022-11-15T18:06:25.774Z,100256.72
2022-11-15T18:08:55.825Z,100254.06
2022-11-15T18:11:24.819Z,100245.13
2022-11-15T18:13:55.158Z,100238.22
2022-11-15T18:16:25.181Z,100244.66
2022-11-15T18:18:53.006Z,100237.16
2022-11-15T18:21:21.731Z,100235.47
2022-11-15T18:23:50.072Z,100247.56
2022-11-15T18:26:20.158Z,100227.38
2022-11-15T18:28:50.606Z,100219.31
2022-11-15T18:31:21.541Z,100226.09
2022-11-15T18:33:50.595Z,100227.72
2022-11-15T18:36:19.838Z,100226.91
2022-11-15T18:38:47.987Z,100222.38
2022-11-15T18:41:17.834Z,100215.94
2022-11-15T18:43:45.484Z,100223.47
2022-11-15T18:46:14.540Z,100220.78
2022-11-15T18:48:45.019Z,100220.53
2022-11-15T18:51:14.506Z,100215.66
2022-11-15T18:53:44.899Z,100205.22
2022-11-15T18:56:13.890Z,100215.16
2022-11-15T18:58:43.208Z,100208.44
2022-11-15T19:01:12.776Z,100202.25
2022-11-15T19:03:41.909Z,100203.78
2022-11-15T19:06:12.559Z,100189.06
2022-11-15T19:08:41.275Z,100183.69
2022-11-15T19:11:11.050Z,100184.41
2022-11-15T19:13:38.494Z,100173.22
2022-11-15T19:16:06.879Z,100180.22
2022-11-15T19:18:34.651Z,100182.91
2022-11-15T19:21:03.812Z,100176.69
2022-11-15T19:23:35.876Z,100179.34
2022-11-15T19:26:05.879Z,100182.34
2022-11-15T19:28:34.135Z,100185.56
2022-11-15T19:31:07.340Z,100178.59
2022-11-15T19:33:35.947Z,100179.66
2022-11-15T19:36:04.324Z,100184.53
2022-11-15T19:38:32.054Z,100185.78
2022-11-15T19:41:01.828Z,100185.28
2022-11-15T19:43:30.464Z,100192.56
2022-11-15T19:46:02.277Z,100196.03
2022-11-15T19:48:31.468Z,100194.22
2022-11-15T19:51:02.940Z,100195.03
2022-11-15T19:53:35.235Z,100185.03
2022-11-15T19:56:06.528Z,100184.53
2022-11-15T19:58:34.729Z,100188.81
2022-11-15T20:01:03.188Z,100175.38
2022-11-15T20:03:32.510Z,100178.84
2022-11-15T20:06:04.119Z,100186.66
2022-11-15T20:08:32.165Z,100180.75
2022-11-15T20:11:00.647Z,100181.84
2022-11-15T20:13:30.168Z,100184.81
2022-11-15T20:15:58.365Z,100181.81
2022-11-15T20:18:27.363Z,100179.66
2022-11-15T20:20:56.415Z,100187.47
2022-11-15T20:23:23.902Z,100186.09
2022-11-15T20:25:51.393Z,100183.44
2022-11-15T20:28:20.932Z,100180.22
2022-11-15T20:30:53.292Z,100172.41
2022-11-15T20:33:21.034Z,100174.88
2022-11-15T20:35:49.086Z,100169.72
2022-11-15T20:38:17.137Z,100172.13
2022-11-15T20:40:45.829Z,100164.59
2022-11-15T20:43:14.367Z,100155.97
2022-11-15T20:45:44.109Z,100158.44
2022-11-15T20:48:13.754Z,100154.09
2022-11-15T20:50:43.272Z,100157.38
2022-11-15T20:53:11.529Z,100157.59
2022-11-15T20:55:42.613Z,100159.41
2022-11-15T20:58:10.312Z,100158.41
2022-11-15T21:00:38.424Z,100155.75
2022-11-15T21:03:06.961Z,100161.34
2022-11-15T21:05:36.556Z,100154.66
2022-11-15T21:08:04.126Z,100152.44
2022-11-15T21:10:49.114Z,100157.03
2022-11-15T21:13:16.570Z,100161.31
2022-11-15T21:15:44.056Z,100161.06
2022-11-15T21:18:11.543Z,100157.31
2022-11-15T21:20:40.392Z,100157.53
2022-11-15T21:23:07.945Z,100157.53
2022-11-15T21:25:35.394Z,100148.41
2022-11-15T21:28:03.972Z,100137.66
2022-11-15T21:30:32.184Z,100139.25
2022-11-15T21:32:59.635Z,100142.47
2022-11-15T21:35:27.146Z,100132.25
2022-11-15T21:37:57.200Z,100133.31
2022-11-15T21:40:24.895Z,100123.06
2022-11-15T21:42:52.399Z,100130.63
2022-11-15T21:45:19.870Z,100131.47
2022-11-15T21:47:47.363Z,100136.06
2022-11-15T21:50:14.899Z,100131.16
2022-11-15T21:52:42.618Z,100133.34
2022-11-15T21:55:11.511Z,100128.00
2022-11-15T21:57:39.086Z,100117.72
2022-11-15T22:00:24.932Z,100118.06
2022-11-15T22:02:53.251Z,100121.78
2022-11-15T22:05:20.713Z,100125.00
2022-11-15T22:07:48.220Z,100121.47
2022-11-15T22:10:17.082Z,100110.50
2022-11-15T22:12:44.580Z,100120.63
2022-11-15T22:15:12.100Z,100119.88
2022-11-15T22:17:57.259Z,100115.88
2022-11-15T22:23:12.228Z,100120.22
2022-11-15T22:25:40.995Z,100118.56
2022-11-15T22:28:08.472Z,100115.88
2022-11-15T22:30:35.928Z,100109.22
2022-11-15T22:33:03.946Z,100109.50
2022-11-15T22:35:31.404Z,100114.13
2022-11-15T22:37:58.840Z,100114.28
2022-11-15T22:40:26.351Z,100116.16
2022-11-15T22:42:55.162Z,100110.72
2022-11-15T22:45:22.651Z,100119.56
2022-11-15T22:47:50.115Z,100112.81
2022-11-15T22:50:18.223Z,100109.59
2022-11-15T22:52:45.769Z,100114.47
2022-11-15T22:55:13.290Z,100107.66
2022-11-15T22:57:40.814Z,100118.31
2022-11-15T23:00:13.108Z,100116.34
2022-11-15T23:02:40.919Z,100109.41
2022-11-15T23:05:08.696Z,100104.66
2022-11-15T23:07:36.436Z,100096.75
2022-11-15T23:10:18.144Z,100098.16
2022-11-15T23:13:03.698Z,100103.50
2022-11-15T23:15:46.714Z,100104.19
2022-11-15T23:18:14.220Z,100096.50
2022-11-15T23:20:43.856Z,100089.00
2022-11-15T23:23:10.611Z,100090.06
2022-11-15T23:25:38.099Z,100091.13
2022-11-15T23:28:08.643Z,100080.31
2022-11-15T23:30:55.769Z,100087.28
2022-11-15T23:33:41.611Z,100080.09
2022-11-15T23:36:09.365Z,100079.66
2022-11-15T23:38:37.687Z,100084.63
2022-11-15T23:41:05.644Z,100077.28
2022-11-15T23:43:33.249Z,100075.44
2022-11-15T23:46:02.526Z,100075.16
2022-11-15T23:48:30.293Z,100083.72
2022-11-15T23:50:57.912Z,100069.28
2022-11-15T23:53:25.436Z,100071.72
2022-11-15T23:55:56.967Z,100071.50
2022-11-15T23:58:24.448Z,100066.03
